Time;durP1;ratioP1;P1;durP2;ratioP2;P2;SDS_P1;SDS_P2;PMS_P1;PMS_P2;Temp;Humidity;BMP_temperature;BMP_pressure;BME280_temperature;BME280_humidity;BME280_pressure;Samples;Min_cycle;Max_cycle;Signal;HPM_P1;HPM_P2
2023/05/03 00:01:24;;;;;;;9.18;3.22;;;;;;;8.70;60.75;102956.66;7396506;19;20014;-60
2023/05/03 00:03:52;;;;;;;8.95;3.28;;;;;;;8.52;61.66;102966.00;7396485;19;20256;-60
2023/05/03 00:06:20;;;;;;;9.40;3.30;;;;;;;8.66;61.56;102970.00;7395706;19;20358;-61
2023/05/03 00:08:47;;;;;;;10.10;3.70;;;;;;;8.39;62.41;102964.63;7396184;19;20039;-61
2023/05/03 00:11:15;;;;;;;11.75;4.43;;;;;;;8.17;63.27;102966.97;7396408;19;20049;-61
2023/05/03 00:13:42;;;;;;;8.95;3.38;;;;;;;8.10;63.64;102965.41;7394271;19;20026;-61
2023/05/03 00:16:08;;;;;;;9.45;3.67;;;;;;;8.02;64.17;102960.34;7396170;19;20587;-61
2023/05/03 00:18:36;;;;;;;9.43;3.83;;;;;;;8.04;64.30;102960.31;7391376;19;20014;-61
2023/05/03 00:21:03;;;;;;;8.90;3.83;;;;;;;8.07;64.22;102962.88;7396387;19;20033;-61
2023/05/03 00:23:30;;;;;;;11.32;4.28;;;;;;;8.17;63.67;102960.84;7395872;19;20085;-61
2023/05/03 00:25:58;;;;;;;9.55;4.55;;;;;;;7.97;64.46;102961.38;7395401;19;20022;-61
2023/05/03 00:28:25;;;;;;;10.32;4.10;;;;;;;7.84;64.99;102957.34;7392823;19;20014;-61
2023/05/03 00:30:52;;;;;;;10.40;3.70;;;;;;;7.76;65.43;102957.56;7393536;19;20074;-61
2023/05/03 00:33:19;;;;;;;9.27;3.63;;;;;;;7.84;65.13;102954.72;7394037;19;20014;-60
2023/05/03 00:35:46;;;;;;;12.23;4.78;;;;;;;7.84;65.69;102960.84;7393530;19;20023;-60
2023/05/03 00:38:14;;;;;;;9.35;3.58;;;;;;;7.98;65.28;102963.13;7392811;19;20043;-60
2023/05/03 00:40:42;;;;;;;9.38;3.55;;;;;;;8.25;63.98;102964.13;7395085;19;20011;-61
2023/05/03 00:43:12;;;;;;;12.07;3.90;;;;;;;8.40;63.78;102957.59;7395568;19;20031;-61
2023/05/03 00:45:39;;;;;;;10.50;3.72;;;;;;;8.40;63.71;102961.09;7395125;19;20015;-61
2023/05/03 00:48:06;;;;;;;11.50;3.67;;;;;;;8.07;64.81;102963.72;7393521;19;20103;-61
2023/05/03 00:50:35;;;;;;;10.68;3.92;;;;;;;7.98;65.31;102964.00;7393111;19;20039;-61
2023/05/03 00:53:02;;;;;;;8.30;3.55;;;;;;;8.05;65.10;102972.56;7395094;19;20022;-62
2023/05/03 00:55:32;;;;;;;15.30;4.20;;;;;;;8.04;65.19;102966.44;7394640;19;20015;-61
2023/05/03 00:57:59;;;;;;;10.15;4.40;;;;;;;8.01;65.85;102963.91;7396116;19;20467;-61
2023/05/03 01:00:26;;;;;;;11.88;4.03;;;;;;;7.88;66.68;102961.63;7394066;19;20074;-61
2023/05/03 01:02:54;;;;;;;8.57;3.75;;;;;;;8.01;66.28;102958.63;7395448;19;20014;-62
2023/05/03 01:05:21;;;;;;;7.93;3.60;;;;;;;8.14;66.02;102961.78;7393729;19;20023;-61
2023/05/03 01:07:54;;;;;;;11.45;3.85;;;;;;;8.24;65.69;102970.28;7392481;19;20086;-62
2023/05/03 01:10:37;;;;;;;7.75;3.30;;;;;;;8.37;65.12;102968.19;7392769;19;20094;-61
2023/05/03 01:13:19;;;;;;;11.30;3.80;;;;;;;8.33;66.07;102962.13;7394454;19;20018;-62
2023/05/03 01:16:18;;;;;;;10.65;3.40;;;;;;;8.50;65.46;102964.31;7393733;19;20112;-60
2023/05/03 01:18:48;;;;;;;11.50;3.72;;;;;;;8.31;66.05;102972.72;7394275;19;20014;-61
2023/05/03 01:21:17;;;;;;;9.13;3.40;;;;;;;8.49;65.79;102971.38;7393605;19;20029;-61
2023/05/03 01:23:50;;;;;;;9.63;3.75;;;;;;;8.56;65.31;102969.41;7394350;19;20022;-61
2023/05/03 01:26:22;;;;;;;10.32;4.13;;;;;;;8.50;65.93;102965.16;7393601;19;20015;-62
2023/05/03 01:28:50;;;;;;;10.15;3.90;;;;;;;8.25;66.93;102969.41;7392560;19;20022;-61
2023/05/03 01:31:31;;;;;;;12.32;3.28;;;;;;;8.52;65.39;102978.34;7391665;19;20512;-61
2023/05/03 01:34:32;;;;;;;10.02;3.60;;;;;;;8.69;63.50;102975.19;7394392;19;20015;-61
2023/05/03 01:37:02;;;;;;;8.98;3.10;;;;;;;8.78;62.03;102967.00;7392440;19;20106;-61
2023/05/03 01:39:41;;;;;;;7.80;2.70;;;;;;;8.85;61.10;102968.53;7391934;19;20019;-62
2023/05/03 01:42:08;;;;;;;8.20;2.75;;;;;;;8.92;60.01;102967.41;7393593;19;20104;-62
2023/05/03 01:44:36;;;;;;;10.18;3.00;;;;;;;8.95;59.67;102963.81;7391835;19;20024;-60
2023/05/03 01:47:03;;;;;;;8.52;3.45;;;;;;;8.99;59.14;102973.38;7392538;19;20094;-60
2023/05/03 01:49:30;;;;;;;9.73;3.05;;;;;;;8.99;59.02;102973.38;7388897;19;20021;-61
2023/05/03 01:51:57;;;;;;;11.43;3.97;;;;;;;8.99;59.13;102974.25;7392108;19;20520;-61
2023/05/03 01:54:24;;;;;;;12.07;4.18;;;;;;;8.99;59.14;102973.38;7393520;19;20010;-61
2023/05/03 01:56:51;;;;;;;5.57;2.75;;;;;;;9.06;59.73;102979.34;7392556;19;20019;-60
2023/05/03 01:59:18;;;;;;;8.13;3.10;;;;;;;9.04;60.25;102974.09;7392723;19;20011;-61
2023/05/03 02:01:45;;;;;;;9.10;2.92;;;;;;;9.03;60.02;102975.03;7392733;19;20114;-61
2023/05/03 02:04:12;;;;;;;6.65;2.88;;;;;;;8.96;60.67;102976.97;7390758;19;20027;-61
2023/05/03 02:06:39;;;;;;;8.77;2.90;;;;;;;8.96;60.61;102978.75;7392303;19;20038;-60
2023/05/03 02:09:07;;;;;;;9.98;3.08;;;;;;;9.01;60.12;102983.00;7392040;19;20081;-60
2023/05/03 02:11:34;;;;;;;11.90;3.30;;;;;;;9.00;59.76;102978.66;7388850;19;20019;-61
2023/05/03 02:14:01;;;;;;;7.90;2.88;;;;;;;9.01;59.78;102987.44;7392413;19;20011;-61
2023/05/03 02:16:28;;;;;;;6.40;2.70;;;;;;;9.01;59.68;102983.00;7391111;19;20039;-62
2023/05/03 02:18:58;;;;;;;7.88;2.95;;;;;;;9.10;59.24;102978.34;7391661;19;20018;-61
2023/05/03 02:21:26;;;;;;;11.45;3.20;;;;;;;9.17;59.07;102986.03;7392001;19;20027;-61
2023/05/03 02:23:53;;;;;;;8.13;2.95;;;;;;;9.13;59.18;102983.53;7390432;19;20007;-62
2023/05/03 02:26:20;;;;;;;9.80;3.10;;;;;;;9.12;59.05;102989.72;7392125;19;20534;-61
2023/05/03 02:28:47;;;;;;;9.90;3.30;;;;;;;9.14;59.34;102986.13;7391681;19;20015;-61
2023/05/03 02:31:14;;;;;;;8.10;3.25;;;;;;;9.22;59.01;102991.16;7389742;19;20043;-62
2023/05/03 02:33:41;;;;;;;7.93;3.28;;;;;;;9.22;59.43;102993.81;7392060;19;20014;-62
2023/05/03 02:36:08;;;;;;;8.38;3.28;;;;;;;9.17;59.42;102998.38;7389711;19;20026;-61
2023/05/03 02:38:35;;;;;;;6.97;3.00;;;;;;;9.16;59.48;102994.03;7389404;19;20085;-61
2023/05/03 02:41:02;;;;;;;8.07;3.40;;;;;;;9.11;59.75;102999.44;7391106;19;20022;-61
2023/05/03 02:43:29;;;;;;;9.73;3.30;;;;;;;9.17;59.22;102999.25;7389861;19;20019;-61
2023/05/03 02:45:56;;;;;;;7.90;3.28;;;;;;;9.16;59.53;102999.31;7390432;19;20034;-61
2023/05/03 02:48:23;;;;;;;7.55;3.20;;;;;;;9.12;59.87;103002.94;7388018;19;20014;-60
2023/05/03 02:50:51;;;;;;;8.50;3.38;;;;;;;9.14;59.75;102995.84;7390109;19;20019;-61
2023/05/03 02:53:17;;;;;;;11.38;3.53;;;;;;;9.21;59.34;102989.44;7391698;19;20022;-60
2023/05/03 02:55:45;;;;;;;9.95;3.80;;;;;;;9.18;59.41;102989.53;7390354;19;20450;-60
2023/05/03 02:58:12;;;;;;;8.20;3.00;;;;;;;9.23;60.48;102977.03;7387645;19;20010;-62
2023/05/03 03:00:39;;;;;;;8.48;3.53;;;;;;;9.13;60.44;102989.69;7390850;19;20022;-60
2023/05/03 03:03:06;;;;;;;9.52;3.67;;;;;;;9.16;59.78;102986.09;7390725;19;20047;-61
2023/05/03 03:05:33;;;;;;;8.70;3.03;;;;;;;9.16;60.09;102981.66;7390753;19;20042;-60
2023/05/03 03:08:00;;;;;;;8.13;2.72;;;;;;;9.18;59.34;102974.53;7388864;19;20078;-61
2023/05/03 03:10:27;;;;;;;7.97;2.53;;;;;;;9.29;59.38;102982.13;7389663;19;20050;-61
2023/05/03 03:12:54;;;;;;;9.48;2.78;;;;;;;9.25;60.26;102980.50;7389737;19;20048;-61
2023/05/03 03:15:21;;;;;;;6.97;2.80;;;;;;;9.21;60.63;102982.38;7390081;19;20018;-62
2023/05/03 03:17:49;;;;;;;8.27;2.65;;;;;;;9.21;60.26;102974.44;7389157;19;20018;-62
2023/05/03 03:20:16;;;;;;;8.68;2.53;;;;;;;9.25;59.72;102970.78;7388778;19;20039;-62
2023/05/03 03:22:44;;;;;;;8.10;2.70;;;;;;;9.19;59.88;102976.25;7387436;19;20475;-61
2023/05/03 03:25:11;;;;;;;9.52;2.83;;;;;;;9.18;59.18;102963.97;7389888;19;20015;-62
2023/05/03 03:27:38;;;;;;;8.00;2.60;;;;;;;9.16;59.29;102972.88;7389102;19;20026;-62
2023/05/03 03:30:07;;;;;;;8.63;3.20;;;;;;;9.18;58.67;102974.53;7389515;19;20082;-62
2023/05/03 03:32:34;;;;;;;5.07;2.33;;;;;;;9.22;59.54;102968.22;7388188;19;20043;-62
2023/05/03 03:35:01;;;;;;;7.57;2.50;;;;;;;9.25;59.64;102968.13;7389774;19;20014;-61
2023/05/03 03:37:28;;;;;;;6.72;2.75;;;;;;;9.29;59.84;102976.84;7388772;19;20019;-61
2023/05/03 03:39:56;;;;;;;8.10;2.47;;;;;;;9.35;59.82;102968.72;7389163;19;20019;-62
2023/05/03 03:42:24;;;;;;;8.60;2.70;;;;;;;9.12;60.47;102980.03;7389696;19;20018;-61
2023/05/03 03:44:51;;;;;;;8.85;2.50;;;;;;;9.15;60.87;102969.34;7389098;19;20022;-61
2023/05/03 03:47:18;;;;;;;6.70;2.60;;;;;;;9.14;61.58;102975.56;7389108;19;20378;-62
2023/05/03 03:49:45;;;;;;;8.27;2.78;;;;;;;9.02;62.01;102978.59;7389323;19;20035;-62
2023/05/03 03:52:12;;;;;;;10.02;2.80;;;;;;;9.13;61.94;102978.25;7387216;19;20042;-61
2023/05/03 03:54:39;;;;;;;9.02;3.55;;;;;;;9.19;61.44;102976.25;7389020;19;20018;-61
2023/05/03 03:57:06;;;;;;;9.93;3.22;;;;;;;9.01;62.42;102980.38;7389040;19;20015;-62
2023/05/03 03:59:33;;;;;;;8.68;3.25;;;;;;;8.96;62.75;102976.13;7387161;19;20542;-62
2023/05/03 04:02:00;;;;;;;9.00;3.45;;;;;;;8.96;62.85;102976.97;7389077;19;20094;-62
2023/05/03 04:04:27;;;;;;;11.35;3.72;;;;;;;8.99;62.68;102978.69;7387286;19;20505;-62
2023/05/03 04:06:54;;;;;;;11.15;3.90;;;;;;;8.99;63.23;102974.25;7388477;19;20098;-62
2023/05/03 04:09:22;;;;;;;10.35;4.15;;;;;;;8.96;63.74;102973.47;7388349;19;20348;-62
2023/05/03 04:11:49;;;;;;;9.15;3.95;;;;;;;9.00;63.19;102980.41;7387453;19;20487;-62
2023/05/03 04:14:16;;;;;;;9.95;4.03;;;;;;;9.06;63.11;102974.94;7388998;19;20018;-61
2023/05/03 04:16:43;;;;;;;11.07;3.75;;;;;;;9.19;63.03;102975.41;7387986;19;20059;-62
2023/05/03 04:19:10;;;;;;;11.18;3.72;;;;;;;9.10;63.36;102981.00;7388664;19;20078;-63
2023/05/03 04:21:37;;;;;;;10.00;3.83;;;;;;;8.96;63.95;102984.03;7388075;19;20524;-62
2023/05/03 04:24:05;;;;;;;9.63;4.03;;;;;;;9.01;63.76;102976.88;7386973;19;20014;-62
2023/05/03 04:26:33;;;;;;;9.68;3.97;;;;;;;9.03;63.40;102981.16;7387409;19;20014;-62
2023/05/03 04:29:00;;;;;;;8.25;3.88;;;;;;;9.12;63.57;102979.16;7386744;19;20011;-61
2023/05/03 04:31:28;;;;;;;11.80;4.10;;;;;;;9.20;63.74;102971.84;7387354;19;20018;-61
2023/05/03 04:33:56;;;;;;;10.45;4.68;;;;;;;9.29;63.74;102976.84;7390162;19;20027;-62
2023/05/03 04:36:28;;;;;;;6.90;3.97;;;;;;;9.43;63.11;102982.53;7394976;19;20019;-62
2023/05/03 04:38:56;;;;;;;14.23;4.35;;;;;;;9.42;62.82;102977.28;7395366;19;20026;-62
2023/05/03 04:41:23;;;;;;;11.02;4.60;;;;;;;9.29;63.64;102976.84;7394993;19;20018;-62
2023/05/03 04:43:51;;;;;;;10.55;4.57;;;;;;;9.14;64.56;102975.56;7395296;19;20015;-63
2023/05/03 04:46:18;;;;;;;11.43;4.53;;;;;;;9.34;63.93;102979.31;7394663;19;20022;-61
2023/05/03 04:48:44;;;;;;;12.43;4.60;;;;;;;9.42;63.57;102978.16;7395185;19;20011;-61
2023/05/03 04:51:12;;;;;;;9.95;3.90;;;;;;;9.43;63.65;102985.19;7390403;19;20047;-61
2023/05/03 04:53:39;;;;;;;9.98;4.25;;;;;;;9.53;63.25;102980.44;7392166;19;20015;-64
2023/05/03 04:56:06;;;;;;;9.50;3.90;;;;;;;9.38;63.67;102981.81;7395225;19;20018;-71
2023/05/03 04:58:33;;;;;;;9.50;3.95;;;;;;;9.20;64.47;102991.22;7394463;19;20491;-61
2023/05/03 05:01:01;;;;;;;10.18;4.00;;;;;;;9.15;64.64;102994.91;7395424;19;20022;-60
2023/05/03 05:03:30;;;;;;;9.80;4.45;;;;;;;9.38;64.31;102991.53;7393847;19;20014;-59
2023/05/03 05:05:57;;;;;;;11.13;5.07;;;;;;;9.56;63.68;102996.22;7395129;19;20017;-60
2023/05/03 05:08:24;;;;;;;10.00;4.28;;;;;;;9.41;64.16;102999.38;7394643;19;20019;-60
2023/05/03 05:10:51;;;;;;;11.60;4.65;;;;;;;9.43;63.20;103001.06;7392383;19;20483;-60
2023/05/03 05:13:18;;;;;;;11.55;4.65;;;;;;;9.51;62.12;103000.81;7394301;19;20026;-60
2023/05/03 05:15:45;;;;;;;11.05;4.30;;;;;;;9.57;61.59;103010.31;7393406;19;20026;-61
2023/05/03 05:18:12;;;;;;;11.93;4.05;;;;;;;9.55;61.17;103005.06;7392489;19;20495;-61
2023/05/03 05:20:40;;;;;;;10.20;3.65;;;;;;;9.55;61.55;103017.44;7394936;19;20033;-61
2023/05/03 05:23:07;;;;;;;7.70;3.58;;;;;;;9.61;60.78;103018.09;7394350;19;20022;-60
2023/05/03 05:25:33;;;;;;;14.30;3.83;;;;;;;9.69;60.00;103017.81;7393151;19;20039;-61
2023/05/03 05:28:00;;;;;;;10.25;3.80;;;;;;;9.74;59.00;103023.84;7394139;19;20021;-61
2023/05/03 05:30:28;;;;;;;10.32;3.90;;;;;;;9.84;58.42;103016.44;7392773;19;20023;-61
2023/05/03 05:32:55;;;;;;;10.77;4.28;;;;;;;9.90;58.11;103026.84;7391997;19;20025;-60
2023/05/03 05:35:25;;;;;;;17.40;4.68;;;;;;;9.97;58.11;103033.66;7390001;19;20019;-61
2023/05/03 05:37:53;;;;;;;15.20;4.35;;;;;;;10.06;58.04;103027.16;7392063;19;20486;-61
2023/05/03 05:40:20;;;;;;;10.73;4.00;;;;;;;10.06;58.37;103035.97;7393212;19;20021;-60
2023/05/03 05:42:49;;;;;;;13.10;4.10;;;;;;;10.06;57.72;103035.97;7392021;19;20021;-59
2023/05/03 05:45:17;;;;;;;14.00;3.75;;;;;;;10.16;57.59;103037.38;7387307;19;20023;-61
2023/05/03 05:47:44;;;;;;;10.30;3.60;;;;;;;10.24;57.60;103031.81;7393121;19;20396;-60
2023/05/03 05:50:12;;;;;;;10.27;3.80;;;;;;;10.15;57.34;103040.97;7393104;19;20026;-61
2023/05/03 05:52:44;;;;;;;8.98;3.50;;;;;;;10.06;57.72;103046.56;7390521;19;20029;-61
2023/05/03 05:55:13;;;;;;;10.93;3.35;;;;;;;10.09;57.20;103043.81;7391021;19;20459;-61
2023/05/03 05:57:40;;;;;;;11.48;3.47;;;;;;;10.17;56.76;103048.84;7393418;19;20018;-60
2023/05/03 06:00:13;;;;;;;11.70;3.20;;;;;;;10.19;56.39;103045.22;7393101;19;20074;-60
2023/05/03 06:02:41;;;;;;;13.87;3.87;;;;;;;10.26;56.14;103053.81;7393344;19;20015;-60
2023/05/03 06:05:10;;;;;;;11.35;3.83;;;;;;;10.29;56.67;103051.06;7390841;19;20035;-60
2023/05/03 06:07:37;;;;;;;10.90;3.40;;;;;;;10.39;56.17;103046.34;7392096;19;20014;-61
2023/05/03 06:10:05;;;;;;;11.10;3.25;;;;;;;10.36;55.47;103046.44;7390879;19;20018;-60
2023/05/03 06:12:33;;;;;;;11.85;3.70;;;;;;;10.35;55.43;103058.81;7389217;19;20483;-61
2023/05/03 06:15:00;;;;;;;13.20;3.85;;;;;;;10.50;54.93;103046.81;7389300;19;20381;-61
2023/05/03 06:17:29;;;;;;;12.90;3.30;;;;;;;10.55;55.33;103055.44;7393086;19;20018;-61
2023/05/03 06:19:57;;;;;;;12.85;3.50;;;;;;;10.62;55.00;103053.44;7390101;19;20025;-64
2023/05/03 06:22:25;;;;;;;10.73;3.55;;;;;;;10.64;54.64;103059.53;7390389;19;20093;-61
2023/05/03 06:24:53;;;;;;;10.48;3.42;;;;;;;10.66;54.34;103058.56;7387476;19;20014;-61
2023/05/03 06:27:20;;;;;;;13.10;3.63;;;;;;;10.65;54.13;103054.19;7392227;19;20035;-61
2023/05/03 06:29:48;;;;;;;15.68;3.70;;;;;;;10.72;54.42;103049.50;7386669;19;20022;-60
2023/05/03 06:32:15;;;;;;;12.65;3.58;;;;;;;10.76;54.71;103045.84;7388363;19;20054;-60
2023/05/03 06:34:42;;;;;;;14.02;3.65;;;;;;;10.86;54.52;103049.00;7389168;19;20039;-60
2023/05/03 06:37:10;;;;;;;13.18;3.63;;;;;;;10.82;54.31;103053.56;7390690;19;20086;-60
2023/05/03 06:39:37;;;;;;;11.63;3.58;;;;;;;10.91;53.89;103057.63;7390105;19;20520;-60
2023/05/03 06:42:04;;;;;;;10.52;3.67;;;;;;;10.96;53.88;103059.19;7390407;19;20078;-60
2023/05/03 06:44:31;;;;;;;12.15;3.20;;;;;;;10.96;54.14;103064.50;7390760;19;20046;-61
2023/05/03 06:46:58;;;;;;;14.55;3.47;;;;;;;10.95;52.59;103068.09;7391825;19;20018;-61
2023/05/03 06:49:25;;;;;;;14.13;3.63;;;;;;;11.00;52.59;103064.41;7389986;19;20031;-61
2023/05/03 06:51:52;;;;;;;10.27;3.50;;;;;;;11.03;53.17;103065.16;7388648;19;20018;-61
2023/05/03 06:54:19;;;;;;;13.48;3.85;;;;;;;11.05;53.20;103063.28;7388743;19;20025;-61
2023/05/03 06:56:46;;;;;;;14.52;3.78;;;;;;;11.14;52.82;103078.84;7390512;19;20357;-61
2023/05/03 06:59:13;;;;;;;10.80;3.47;;;;;;;11.19;52.36;103070.72;7390698;19;20014;-61
2023/05/03 07:01:40;;;;;;;15.00;3.85;;;;;;;11.24;52.33;103084.66;7389976;19;20026;-61
2023/05/03 07:04:07;;;;;;;8.88;2.83;;;;;;;11.25;52.27;103069.59;7390692;19;20099;-61
2023/05/03 07:06:34;;;;;;;11.75;3.60;;;;;;;11.31;52.14;103072.88;7390843;19;20021;-60
2023/05/03 07:09:14;;;;;;;14.57;3.60;;;;;;;11.30;52.13;103065.84;7391224;19;20014;-60
2023/05/03 07:11:48;;;;;;;15.48;4.10;;;;;;;11.29;52.21;103066.75;7390506;19;20019;-61
2023/05/03 07:14:15;;;;;;;12.93;4.40;;;;;;;11.26;52.63;103071.34;7390623;19;20022;-61
2023/05/03 07:16:42;;;;;;;15.93;4.72;;;;;;;11.36;53.24;103068.25;7390638;19;20014;-62
2023/05/03 07:19:09;;;;;;;10.63;3.40;;;;;;;11.42;52.49;103064.50;7390602;19;20082;-62
2023/05/03 07:21:36;;;;;;;9.20;3.05;;;;;;;11.46;53.31;103068.75;7390776;19;20038;-62
2023/05/03 07:24:03;;;;;;;7.53;2.20;;;;;;;11.56;51.62;103064.81;7389952;19;20026;-61
2023/05/03 07:26:30;;;;;;;6.07;1.50;;;;;;;11.62;49.65;103066.34;7390139;19;20016;-61
2023/05/03 07:28:57;;;;;;;5.75;1.58;;;;;;;11.53;47.95;103058.75;7390178;19;20039;-61
2023/05/03 07:31:25;;;;;;;4.15;1.38;;;;;;;11.54;47.66;103060.47;7390276;19;20042;-61
2023/05/03 07:33:52;;;;;;;5.57;1.33;;;;;;;11.60;47.98;103070.81;7390374;19;20022;-62
2023/05/03 07:36:19;;;;;;;5.50;1.40;;;;;;;11.59;47.08;103072.63;7390327;19;20014;-61
2023/05/03 07:38:46;;;;;;;5.10;1.40;;;;;;;11.47;46.50;103075.78;7389974;19;20022;-62
2023/05/03 07:41:13;;;;;;;6.57;1.58;;;;;;;11.45;46.14;103075.84;7390797;19;20019;-62
2023/05/03 07:43:40;;;;;;;5.63;1.48;;;;;;;11.38;46.38;103074.38;7390240;19;20018;-62
2023/05/03 07:46:07;;;;;;;5.00;1.35;;;;;;;11.42;47.08;103077.75;7389927;19;20023;-61
2023/05/03 07:48:34;;;;;;;4.68;1.08;;;;;;;11.40;46.61;103075.16;7390009;19;20018;-60
2023/05/03 07:51:03;;;;;;;4.47;1.30;;;;;;;11.38;47.05;103071.72;7389650;19;20022;-60
2023/05/03 07:53:30;;;;;;;4.88;1.20;;;;;;;11.45;46.70;103065.25;7387365;19;20022;-60
2023/05/03 07:55:57;;;;;;;6.35;1.67;;;;;;;11.37;47.09;103066.44;7387781;19;20034;-60
2023/05/03 07:58:24;;;;;;;5.85;1.10;;;;;;;11.50;46.91;103066.84;7386580;19;20028;-60
2023/05/03 08:01:05;;;;;;;2.78;1.10;;;;;;;11.66;46.55;103060.84;7387378;19;20038;-60
2023/05/03 08:03:32;;;;;;;6.78;1.20;;;;;;;11.81;45.96;103059.34;7385466;19;20045;-60
2023/05/03 08:06:00;;;;;;;6.03;1.27;;;;;;;11.87;46.29;103060.91;7387613;19;20495;-60
2023/05/03 08:08:28;;;;;;;5.72;1.40;;;;;;;11.87;45.84;103066.22;7387102;19;20014;-59
2023/05/03 08:10:55;;;;;;;3.53;1.50;;;;;;;11.84;45.71;103064.56;7392916;19;20022;-60
2023/05/03 08:13:22;;;;;;;5.75;1.27;;;;;;;11.88;46.09;103070.59;7391712;19;20023;-59
2023/05/03 08:15:49;;;;;;;3.15;1.27;;;;;;;11.91;46.13;103066.03;7394250;19;20018;-60
2023/05/03 08:18:16;;;;;;;2.53;0.93;;;;;;;12.04;46.12;103070.81;7393906;19;20039;-60
2023/05/03 08:20:43;;;;;;;6.35;1.45;;;;;;;12.06;45.35;103069.84;7392477;19;20067;-60
2023/05/03 08:23:10;;;;;;;6.25;1.70;;;;;;;12.06;45.25;103066.31;7393730;19;20523;-61
2023/05/03 08:25:37;;;;;;;5.30;1.30;;;;;;;12.00;44.84;103062.13;7393627;19;20018;-61
2023/05/03 08:28:06;;;;;;;4.07;1.27;;;;;;;12.02;44.87;103064.69;7391639;19;20517;-60
2023/05/03 08:30:34;;;;;;;6.47;1.50;;;;;;;11.97;44.76;103066.69;7393510;19;20082;-60
2023/05/03 08:33:01;;;;;;;5.72;1.60;;;;;;;12.03;45.10;103069.97;7390237;19;20047;-61
2023/05/03 08:35:28;;;;;;;5.88;1.60;;;;;;;12.11;45.07;103067.84;7393448;19;20026;-60
2023/05/03 08:37:55;;;;;;;4.65;1.60;;;;;;;12.35;44.71;103065.91;7393948;19;20032;-61
2023/05/03 08:40:26;;;;;;;4.25;1.17;;;;;;;12.37;44.28;103072.03;7393632;19;20113;-60
2023/05/03 08:42:56;;;;;;;4.55;1.50;;;;;;;12.35;44.30;103067.69;7393608;19;20013;-61
2023/05/03 08:45:24;;;;;;;4.25;1.60;;;;;;;12.30;44.48;103072.34;7390997;19;20040;-60
2023/05/03 08:47:54;;;;;;;7.30;1.75;;;;;;;12.44;44.04;103075.28;7393039;19;20495;-60
2023/05/03 08:50:22;;;;;;;4.43;1.80;;;;;;;12.36;43.98;103075.63;7393511;19;20025;-61
2023/05/03 08:52:49;;;;;;;4.65;1.50;;;;;;;12.34;43.75;103080.13;7391380;19;20022;-60
2023/05/03 08:55:16;;;;;;;8.18;1.50;;;;;;;12.42;44.02;103077.97;7247183;19;2813143;-60
2023/05/03 08:57:43;;;;;;;3.75;1.30;;;;;;;12.48;44.15;103068.91;7395529;19;20022;-60
2023/05/03 09:00:11;;;;;;;5.47;1.45;;;;;;;12.46;43.96;103073.41;7395422;19;20018;-59
2023/05/03 09:02:39;;;;;;;5.55;1.70;;;;;;;12.38;43.83;103073.72;7395890;19;20224;-58
2023/05/03 09:05:16;;;;;;;6.50;1.63;;;;;;;12.43;43.10;103073.53;7391346;19;20018;-59
2023/05/03 09:08:06;;;;;;;5.05;1.30;;;;;;;12.49;42.08;103075.06;7394793;19;20092;-60
2023/05/03 09:10:39;;;;;;;6.47;1.35;;;;;;;12.48;42.65;103074.22;7394858;19;20014;-59
2023/05/03 09:13:07;;;;;;;;;;;;;;;12.20;42.37;103071.88;7393519;19;20021;-59
2023/05/03 09:15:34;;;;;;;5.38;1.40;;;;;;;12.18;43.61;103071.97;7394741;19;19919;-59
2023/05/03 09:18:18;;;;;;;5.03;1.20;;;;;;;12.27;43.32;103081.31;7393113;19;20014;-60
2023/05/03 09:20:53;;;;;;;6.15;1.25;;;;;;;12.18;42.99;103074.63;7394978;19;20371;-60
2023/05/03 09:23:25;;;;;;;5.85;1.27;;;;;;;12.26;42.68;103076.06;7394356;19;20037;-60
2023/05/03 09:25:53;;;;;;;5.00;0.97;;;;;;;12.41;42.20;103080.72;7394715;19;20015;-61
2023/05/03 09:28:20;;;;;;;4.53;1.10;;;;;;;12.48;41.56;103075.97;7394326;19;20134;-63
2023/05/03 09:30:49;;;;;;;5.32;1.52;;;;;;;12.64;41.08;103075.25;7393669;19;20455;-63
2023/05/03 09:33:28;;;;;;;3.50;1.17;;;;;;;12.70;40.81;103074.09;7392181;19;20023;-60
2023/05/03 09:36:00;;;;;;;3.80;1.00;;;;;;;12.71;41.80;103077.63;7394323;19;20023;-61
2023/05/03 09:38:29;;;;;;;3.88;1.27;;;;;;;12.53;41.46;103069.53;7391597;19;20496;-60
2023/05/03 09:40:57;;;;;;;4.95;1.40;;;;;;;12.49;42.25;103067.09;7394340;19;20405;-62
2023/05/03 09:43:24;;;;;;;4.05;1.10;;;;;;;12.40;42.69;103069.22;7393718;19;20014;-63
2023/05/03 09:45:51;;;;;;;5.90;1.42;;;;;;;12.36;43.17;103075.63;7393554;19;20674;-61
2023/05/03 09:48:22;;;;;;;6.38;1.50;;;;;;;12.28;43.44;103075.06;7393768;19;20018;-61
2023/05/03 09:50:50;;;;;;;4.63;1.50;;;;;;;12.19;43.33;103062.19;7394213;19;20092;-62
2023/05/03 09:53:20;;;;;;;4.32;1.30;;;;;;;12.21;42.99;103068.31;7389498;19;20554;-62
2023/05/03 09:55:49;;;;;;;3.88;1.38;;;;;;;12.22;42.92;103067.38;7393435;19;20480;-62
2023/05/03 09:58:17;;;;;;;4.25;1.25;;;;;;;12.32;42.08;103062.50;7394368;19;20032;-61
2023/05/03 10:00:45;;;;;;;2.95;0.98;;;;;;;12.41;42.27;103052.34;7393323;19;20022;-62
2023/05/03 10:03:21;;;;;;;4.43;1.30;;;;;;;12.60;42.00;103052.38;7392523;19;20031;-64
2023/05/03 10:05:50;;;;;;;3.25;1.20;;;;;;;12.60;41.92;103054.19;7393074;19;20022;-64
2023/05/03 10:08:37;;;;;;;2.95;1.20;;;;;;;12.69;41.85;103053.75;7392842;19;20010;-64
2023/05/03 10:11:08;;;;;;;6.47;1.55;;;;;;;12.66;41.41;103040.59;7391932;19;20026;-64
2023/05/03 10:13:35;;;;;;;5.05;1.20;;;;;;;12.55;41.65;103041.09;7390584;19;20019;-61
2023/05/03 10:16:08;;;;;;;4.55;1.30;;;;;;;12.50;42.54;103047.56;7390326;19;20042;-61
2023/05/03 10:18:44;;;;;;;3.75;0.95;;;;;;;12.55;41.59;103040.22;7391253;19;20082;-61
2023/05/03 10:21:17;;;;;;;4.10;1.30;;;;;;;12.73;41.82;103041.19;7392429;19;20501;-61
2023/05/03 10:24:13;;;;;;;3.53;1.25;;;;;;;12.96;42.15;103040.97;7390174;19;20043;-61
2023/05/03 10:26:46;;;;;;;5.05;1.52;;;;;;;12.91;42.50;103043.84;7393046;19;20370;-60
2023/05/03 10:29:36;;;;;;;3.85;1.10;;;;;;;12.66;42.83;103044.13;7391509;19;20523;-60
2023/05/03 10:32:04;;;;;;;3.45;1.08;;;;;;;12.46;43.09;103048.63;7390827;19;20024;-61
2023/05/03 10:34:33;;;;;;;3.78;1.20;;;;;;;12.44;42.86;103040.72;7389036;19;20014;-60
2023/05/03 10:37:06;;;;;;;4.20;1.20;;;;;;;12.60;43.05;103046.22;7391634;19;20019;-60
2023/05/03 10:39:33;;;;;;;3.45;1.30;;;;;;;12.80;43.01;103046.16;7391779;19;20047;-60
2023/05/03 10:42:06;;;;;;;6.63;1.30;;;;;;;12.94;42.28;103048.19;7392209;19;20020;-61
2023/05/03 10:44:53;;;;;;;4.35;1.20;;;;;;;12.92;42.48;103042.91;7389165;19;20022;-60
2023/05/03 10:47:22;;;;;;;4.43;1.13;;;;;;;12.97;42.59;103037.38;7392161;19;20018;-61
2023/05/03 10:50:15;;;;;;;6.13;1.30;;;;;;;13.19;42.60;103029.25;7391364;19;20430;-61
2023/05/03 10:52:42;;;;;;;3.35;1.10;;;;;;;13.31;41.88;103022.50;7391249;19;20022;-63
2023/05/03 10:55:27;;;;;;;3.33;1.10;;;;;;;13.54;41.97;103032.00;7390499;19;20482;-64
2023/05/03 10:57:57;;;;;;;4.45;1.30;;;;;;;13.51;41.47;103018.88;7389242;19;20486;-64
2023/05/03 11:00:40;;;;;;;3.83;1.40;;;;;;;13.51;42.65;103021.53;7390480;19;20026;-64
2023/05/03 11:03:28;;;;;;;3.63;1.02;;;;;;;13.46;41.13;103021.75;7391399;19;20025;-63
2023/05/03 11:05:56;;;;;;;3.95;1.48;;;;;;;13.28;41.36;103026.19;7390389;19;20043;-65
2023/05/03 11:08:29;;;;;;;3.47;1.20;;;;;;;13.38;42.21;103029.25;7391290;19;20014;-64
2023/05/03 11:10:58;;;;;;;6.30;1.33;;;;;;;13.55;41.92;103029.28;7391433;19;20339;-63
2023/05/03 11:13:26;;;;;;;3.47;1.25;;;;;;;13.55;41.27;103023.09;7389913;19;20014;-62
2023/05/03 11:15:56;;;;;;;4.03;1.05;;;;;;;13.55;40.36;103015.13;7390227;19;20015;-63
2023/05/03 11:18:28;;;;;;;2.95;1.10;;;;;;;13.52;40.70;103017.94;7390835;19;20022;-63
2023/05/03 11:20:56;;;;;;;5.20;1.48;;;;;;;13.45;40.32;103005.84;7390586;19;20345;-63
2023/05/03 11:23:27;;;;;;;4.20;1.10;;;;;;;13.36;41.01;103010.69;7390930;19;20063;-62
2023/05/03 11:25:56;;;;;;;3.78;1.10;;;;;;;13.13;41.44;103000.28;7390487;19;20015;-63
2023/05/03 11:28:24;;;;;;;4.18;1.30;;;;;;;13.10;41.95;103013.72;7389017;19;20142;-63
2023/05/03 11:30:51;;;;;;;3.22;1.10;;;;;;;13.11;41.61;103012.78;7390247;19;20011;-64
2023/05/03 11:33:19;;;;;;;4.38;1.00;;;;;;;13.27;41.49;103013.78;7389448;19;20491;-63
2023/05/03 11:35:46;;;;;;;4.22;1.20;;;;;;;13.39;41.97;103009.66;7388001;19;20022;-63